AAL1040 KBDL-KBOS
Flight info
| Callsign | AAL1040 |
|---|---|
| Flight time | 0h 54m |
| Altitude | 17000 |
| Route | HFD T216 THUMB RUIZE ROBUC3 |
| Aircraft | B738/M-SDE2E3FGHIRWXY/LB1 |
Departure
| Time | 2026-05-07 03:32 |
|---|---|
| Airport | Bradley International Airport (KBDL) |
Arrival
| Time | 2026-05-07 04:27 |
|---|---|
| Airport | Boston Logan International Airport (KBOS) |
| Time | Latitude | Longitude | Altitude | Speed | Heading |
|---|---|---|---|---|---|
| 2026-05-07 03:04 | 41.93013 | -72.68332 | 180 ft | 0 kts | 182° |
| 2026-05-07 03:21 | 41.93024 | -72.68331 | 180 ft | 3 kts | 189° |
| 2026-05-07 03:22 | 41.93043 | -72.68325 | 179 ft | 3 kts | 210° |
| 2026-05-07 03:22 | 41.93058 | -72.68309 | 179 ft | 3 kts | 236° |
| 2026-05-07 03:22 | 41.93067 | -72.68286 | 179 ft | 3 kts | 261° |
| 2026-05-07 03:22 | 41.93067 | -72.68260 | 180 ft | 3 kts | 287° |
| 2026-05-07 03:23 | 41.93060 | -72.68239 | 180 ft | 3 kts | 329° |
| 2026-05-07 03:23 | 41.93052 | -72.68234 | 180 ft | 1 kts | 12° |
| 2026-05-07 03:25 | 41.93057 | -72.68233 | 180 ft | 2 kts | 12° |
| 2026-05-07 03:25 | 41.93079 | -72.68226 | 180 ft | 5 kts | 14° |
| 2026-05-07 03:25 | 41.93112 | -72.68200 | 180 ft | 7 kts | 45° |
| 2026-05-07 03:25 | 41.93148 | -72.68147 | 180 ft | 9 kts | 43° |
| 2026-05-07 03:26 | 41.93214 | -72.68147 | 178 ft | 11 kts | 335° |
| 2026-05-07 03:26 | 41.93277 | -72.68218 | 177 ft | 12 kts | 315° |
| 2026-05-07 03:26 | 41.93346 | -72.68273 | 177 ft | 12 kts | 3° |
| 2026-05-07 03:26 | 41.93422 | -72.68204 | 175 ft | 14 kts | 31° |
| 2026-05-07 03:27 | 41.93496 | -72.68271 | 174 ft | 15 kts | 301° |
| 2026-05-07 03:27 | 41.93552 | -72.68383 | 176 ft | 14 kts | 310° |
| 2026-05-07 03:27 | 41.93619 | -72.68476 | 177 ft | 14 kts | 315° |
| 2026-05-07 03:27 | 41.93684 | -72.68566 | 178 ft | 13 kts | 314° |
| 2026-05-07 03:28 | 41.93756 | -72.68631 | 181 ft | 13 kts | 355° |
| 2026-05-07 03:28 | 41.93829 | -72.68566 | 181 ft | 14 kts | 42° |
| 2026-05-07 03:28 | 41.93905 | -72.68473 | 180 ft | 16 kts | 42° |
| 2026-05-07 03:28 | 41.93985 | -72.68376 | 182 ft | 15 kts | 42° |
| 2026-05-07 03:29 | 41.94060 | -72.68284 | 183 ft | 15 kts | 42° |
| 2026-05-07 03:29 | 41.94137 | -72.68191 | 184 ft | 15 kts | 42° |
| 2026-05-07 03:29 | 41.94211 | -72.68100 | 191 ft | 14 kts | 42° |
| 2026-05-07 03:29 | 41.94290 | -72.68002 | 183 ft | 17 kts | 44° |
| 2026-05-07 03:30 | 41.94375 | -72.67891 | 182 ft | 17 kts | 44° |
| 2026-05-07 03:30 | 41.94457 | -72.67787 | 179 ft | 9 kts | 41° |
| 2026-05-07 03:30 | 41.94519 | -72.67768 | 177 ft | 10 kts | 343° |
| 2026-05-07 03:30 | 41.94558 | -72.67835 | 176 ft | 9 kts | 278° |
| 2026-05-07 03:31 | 41.94533 | -72.67911 | 177 ft | 9 kts | 228° |
| 2026-05-07 03:31 | 41.94488 | -72.67972 | 180 ft | 11 kts | 224° |
| 2026-05-07 03:31 | 41.94265 | -72.68267 | 183 ft | 87 kts | 224° |
| 2026-05-07 03:31 | 41.93641 | -72.69084 | 195 ft | 160 kts | 227° |
| 2026-05-07 03:32 | 41.92722 | -72.70234 | 590 ft | 195 kts | 227° |
| 2026-05-07 03:32 | 41.91681 | -72.71487 | 1351 ft | 209 kts | 225° |
| 2026-05-07 03:32 | 41.90563 | -72.72761 | 2212 ft | 210 kts | 223° |
| 2026-05-07 03:32 | 41.89317 | -72.73812 | 3078 ft | 217 kts | 202° |
| 2026-05-07 03:33 | 41.87766 | -72.73908 | 3761 ft | 238 kts | 169° |
| 2026-05-07 03:33 | 41.86308 | -72.72615 | 4350 ft | 267 kts | 137° |
| 2026-05-07 03:33 | 41.85091 | -72.70678 | 5174 ft | 279 kts | 130° |
| 2026-05-07 03:33 | 41.84032 | -72.68477 | 5809 ft | 289 kts | 130° |
| 2026-05-07 03:34 | 41.82767 | -72.66386 | 6500 ft | 289 kts | 143° |
| 2026-05-07 03:34 | 41.81244 | -72.64660 | 7271 ft | 285 kts | 153° |
| 2026-05-07 03:34 | 41.79579 | -72.63253 | 8062 ft | 282 kts | 160° |
| 2026-05-07 03:34 | 41.77827 | -72.62046 | 8826 ft | 283 kts | 164° |
| 2026-05-07 03:35 | 41.76027 | -72.60957 | 9620 ft | 284 kts | 167° |
| 2026-05-07 03:35 | 41.74189 | -72.59929 | 10223 ft | 292 kts | 168° |
| 2026-05-07 03:35 | 41.72216 | -72.58888 | 10395 ft | 316 kts | 168° |
| 2026-05-07 03:35 | 41.70092 | -72.57795 | 10566 ft | 338 kts | 168° |
| 2026-05-07 03:36 | 41.67864 | -72.56654 | 10788 ft | 356 kts | 167° |
| 2026-05-07 03:36 | 41.65545 | -72.55320 | 11294 ft | 370 kts | 159° |
| 2026-05-07 03:36 | 41.63387 | -72.53349 | 12005 ft | 383 kts | 148° |
| 2026-05-07 03:36 | 41.61488 | -72.50777 | 12684 ft | 395 kts | 138° |
| 2026-05-07 03:37 | 41.59727 | -72.47913 | 13344 ft | 401 kts | 136° |
| 2026-05-07 03:37 | 41.57960 | -72.44988 | 13947 ft | 406 kts | 136° |
| 2026-05-07 03:37 | 41.56139 | -72.42099 | 14593 ft | 405 kts | 140° |
| 2026-05-07 03:37 | 41.54294 | -72.39217 | 15294 ft | 410 kts | 137° |
| 2026-05-07 03:38 | 41.52575 | -72.36122 | 15982 ft | 420 kts | 129° |
| 2026-05-07 03:38 | 41.51217 | -72.32619 | 16628 ft | 431 kts | 119° |
| 2026-05-07 03:38 | 41.50133 | -72.28867 | 16840 ft | 438 kts | 116° |
| 2026-05-07 03:38 | 41.49128 | -72.25003 | 16829 ft | 457 kts | 109° |
| 2026-05-07 03:39 | 41.48737 | -72.20694 | 16855 ft | 479 kts | 91° |
| 2026-05-07 03:39 | 41.49241 | -72.16258 | 16856 ft | 489 kts | 73° |
| 2026-05-07 03:39 | 41.50513 | -72.12052 | 16869 ft | 488 kts | 66° |
| 2026-05-07 03:39 | 41.51917 | -72.07924 | 16859 ft | 488 kts | 65° |
| 2026-05-07 03:40 | 41.53329 | -72.03797 | 16854 ft | 489 kts | 65° |
| 2026-05-07 03:40 | 41.54724 | -71.99655 | 16846 ft | 489 kts | 66° |
| 2026-05-07 03:40 | 41.56094 | -71.95493 | 16851 ft | 489 kts | 66° |
| 2026-05-07 03:40 | 41.57443 | -71.91327 | 16858 ft | 488 kts | 67° |
| 2026-05-07 03:41 | 41.58763 | -71.87210 | 16857 ft | 488 kts | 67° |
| 2026-05-07 03:41 | 41.60110 | -71.82987 | 16853 ft | 488 kts | 67° |
| 2026-05-07 03:41 | 41.61424 | -71.78862 | 16848 ft | 488 kts | 67° |
| 2026-05-07 03:41 | 41.62752 | -71.74691 | 16843 ft | 488 kts | 67° |
| 2026-05-07 03:42 | 41.64077 | -71.70526 | 16848 ft | 487 kts | 67° |
| 2026-05-07 03:42 | 41.65408 | -71.66343 | 16850 ft | 487 kts | 67° |
| 2026-05-07 03:42 | 41.66724 | -71.62200 | 16831 ft | 476 kts | 67° |
| 2026-05-07 03:42 | 41.67992 | -71.58202 | 16830 ft | 457 kts | 68° |
| 2026-05-07 03:43 | 41.69152 | -71.54344 | 16809 ft | 438 kts | 69° |
| 2026-05-07 03:43 | 41.70224 | -71.50618 | 16827 ft | 420 kts | 69° |
| 2026-05-07 03:43 | 41.71253 | -71.47042 | 16849 ft | 404 kts | 69° |
| 2026-05-07 03:43 | 41.72245 | -71.43636 | 16832 ft | 391 kts | 68° |
| 2026-05-07 03:44 | 41.73410 | -71.40424 | 16837 ft | 376 kts | 59° |
| 2026-05-07 03:44 | 41.74718 | -71.37460 | 16827 ft | 363 kts | 57° |
| 2026-05-07 03:44 | 41.76002 | -71.34609 | 16830 ft | 351 kts | 58° |
| 2026-05-07 03:44 | 41.77218 | -71.31836 | 16824 ft | 338 kts | 59° |
| 2026-05-07 03:45 | 41.78375 | -71.29146 | 16825 ft | 327 kts | 59° |
| 2026-05-07 03:45 | 41.79494 | -71.26524 | 16840 ft | 323 kts | 59° |
| 2026-05-07 03:45 | 41.80600 | -71.23927 | 16848 ft | 325 kts | 59° |
| 2026-05-07 03:45 | 41.81729 | -71.21273 | 16853 ft | 327 kts | 59° |
| 2026-05-07 03:46 | 41.82860 | -71.18613 | 16860 ft | 329 kts | 59° |
| 2026-05-07 03:46 | 41.84000 | -71.15930 | 16852 ft | 331 kts | 59° |
| 2026-05-07 03:46 | 41.85143 | -71.13238 | 16848 ft | 333 kts | 59° |
| 2026-05-07 03:46 | 41.86296 | -71.10539 | 16863 ft | 334 kts | 59° |
| 2026-05-07 03:47 | 41.87464 | -71.07834 | 16847 ft | 335 kts | 59° |
| 2026-05-07 03:47 | 41.88634 | -71.05132 | 16844 ft | 334 kts | 59° |
| 2026-05-07 03:47 | 41.89801 | -71.02438 | 16837 ft | 333 kts | 59° |
| 2026-05-07 03:47 | 41.90930 | -70.99824 | 16831 ft | 332 kts | 59° |
| 2026-05-07 03:48 | 41.92071 | -70.97179 | 16829 ft | 330 kts | 59° |
| 2026-05-07 03:48 | 41.93220 | -70.94513 | 16829 ft | 329 kts | 59° |
| 2026-05-07 03:48 | 41.94361 | -70.91860 | 16829 ft | 327 kts | 59° |
| 2026-05-07 03:48 | 41.95499 | -70.89213 | 16831 ft | 326 kts | 59° |
| 2026-05-07 03:49 | 41.96631 | -70.86576 | 16794 ft | 325 kts | 59° |
| 2026-05-07 03:49 | 41.97756 | -70.83955 | 16817 ft | 323 kts | 59° |
| 2026-05-07 03:49 | 41.98880 | -70.81333 | 16815 ft | 324 kts | 59° |
| 2026-05-07 03:49 | 42.00003 | -70.78713 | 16850 ft | 324 kts | 59° |
| 2026-05-07 03:50 | 42.01149 | -70.76093 | 16824 ft | 325 kts | 54° |
| 2026-05-07 03:50 | 42.02562 | -70.73729 | 16840 ft | 323 kts | 44° |
| 2026-05-07 03:50 | 42.04107 | -70.71528 | 16837 ft | 324 kts | 43° |
| 2026-05-07 03:50 | 42.05643 | -70.69345 | 16836 ft | 326 kts | 44° |
| 2026-05-07 03:51 | 42.07179 | -70.67100 | 16837 ft | 327 kts | 44° |
| 2026-05-07 03:51 | 42.08708 | -70.64823 | 16835 ft | 328 kts | 45° |
| 2026-05-07 03:51 | 42.10275 | -70.62595 | 16820 ft | 325 kts | 33° |
| 2026-05-07 03:51 | 42.12208 | -70.61209 | 16849 ft | 308 kts | 9° |
| 2026-05-07 03:52 | 42.14276 | -70.60507 | 16831 ft | 304 kts | 2° |
| 2026-05-07 03:52 | 42.16324 | -70.59968 | 16867 ft | 303 kts | 1° |
| 2026-05-07 03:52 | 42.18406 | -70.59439 | 16835 ft | 305 kts | 1° |
| 2026-05-07 03:52 | 42.20493 | -70.58895 | 16828 ft | 306 kts | 1° |
| 2026-05-07 03:53 | 42.22583 | -70.58333 | 16817 ft | 306 kts | 2° |
| 2026-05-07 03:53 | 42.24675 | -70.57757 | 16812 ft | 307 kts | 2° |
| 2026-05-07 03:53 | 42.26765 | -70.57175 | 16814 ft | 307 kts | 2° |
| 2026-05-07 03:53 | 42.28855 | -70.56591 | 16817 ft | 306 kts | 2° |
| 2026-05-07 03:54 | 42.30944 | -70.56103 | 16803 ft | 298 kts | 350° |
| 2026-05-07 03:54 | 42.32852 | -70.56604 | 16831 ft | 268 kts | 323° |
| 2026-05-07 03:54 | 42.34403 | -70.57863 | 16804 ft | 252 kts | 307° |
| 2026-05-07 03:54 | 42.35656 | -70.59432 | 16814 ft | 248 kts | 303° |
| 2026-05-07 03:55 | 42.36888 | -70.61076 | 16814 ft | 249 kts | 303° |
| 2026-05-07 03:55 | 42.38117 | -70.62725 | 16817 ft | 249 kts | 303° |
| 2026-05-07 03:55 | 42.39351 | -70.64374 | 16812 ft | 250 kts | 303° |
| 2026-05-07 03:55 | 42.40594 | -70.66026 | 16805 ft | 251 kts | 303° |
| 2026-05-07 03:56 | 42.41840 | -70.67677 | 16800 ft | 251 kts | 303° |
| 2026-05-07 03:56 | 42.43090 | -70.69330 | 16795 ft | 251 kts | 303° |
| 2026-05-07 03:56 | 42.44344 | -70.70987 | 16798 ft | 252 kts | 303° |
| 2026-05-07 03:56 | 42.45602 | -70.72646 | 16796 ft | 252 kts | 303° |
| 2026-05-07 03:57 | 42.46840 | -70.74280 | 16800 ft | 252 kts | 303° |
| 2026-05-07 03:57 | 42.48096 | -70.75937 | 16793 ft | 252 kts | 303° |
| 2026-05-07 03:57 | 42.49352 | -70.77596 | 16794 ft | 252 kts | 303° |
| 2026-05-07 03:57 | 42.50607 | -70.79254 | 16793 ft | 252 kts | 303° |
| 2026-05-07 03:58 | 42.52008 | -70.80757 | 16772 ft | 269 kts | 323° |
| 2026-05-07 03:58 | 42.53918 | -70.81281 | 16791 ft | 296 kts | 354° |
| 2026-05-07 03:58 | 42.55972 | -70.80585 | 16810 ft | 309 kts | 12° |
| 2026-05-07 03:58 | 42.57993 | -70.79550 | 16799 ft | 312 kts | 13° |
| 2026-05-07 03:59 | 42.60025 | -70.78508 | 16813 ft | 313 kts | 12° |
| 2026-05-07 03:59 | 42.62072 | -70.77478 | 16800 ft | 315 kts | 12° |
| 2026-05-07 03:59 | 42.63439 | -70.76839 | 16794 ft | 311 kts | 4° |
| 2026-05-07 03:59 | 42.65484 | -70.76822 | 16800 ft | 280 kts | 331° |
| 2026-05-07 04:00 | 42.67587 | -70.78420 | 16799 ft | 251 kts | 303° |
| 2026-05-07 04:00 | 42.68642 | -70.80202 | 16792 ft | 236 kts | 287° |
| 2026-05-07 04:00 | 42.69221 | -70.82219 | 16796 ft | 224 kts | 272° |
| 2026-05-07 04:00 | 42.69342 | -70.83595 | 16795 ft | 219 kts | 263° |
| 2026-05-07 04:01 | 42.69149 | -70.85609 | 16797 ft | 214 kts | 250° |
| 2026-05-07 04:01 | 42.68538 | -70.87441 | 16793 ft | 213 kts | 236° |
| 2026-05-07 04:01 | 42.67568 | -70.88961 | 16809 ft | 215 kts | 225° |
| 2026-05-07 04:01 | 42.66361 | -70.90190 | 16796 ft | 219 kts | 215° |
| 2026-05-07 04:02 | 42.64910 | -70.90923 | 16790 ft | 228 kts | 199° |
| 2026-05-07 04:02 | 42.63319 | -70.91206 | 16788 ft | 231 kts | 196° |
| 2026-05-07 04:02 | 42.61719 | -70.91407 | 16795 ft | 230 kts | 195° |
| 2026-05-07 04:02 | 42.60125 | -70.91599 | 16765 ft | 229 kts | 195° |
| 2026-05-07 04:03 | 42.58540 | -70.91792 | 16781 ft | 228 kts | 195° |
| 2026-05-07 04:03 | 42.56965 | -70.91988 | 16788 ft | 226 kts | 195° |
| 2026-05-07 04:03 | 42.55399 | -70.92184 | 16788 ft | 226 kts | 195° |
| 2026-05-07 04:03 | 42.53833 | -70.92380 | 16791 ft | 226 kts | 196° |
| 2026-05-07 04:04 | 42.52328 | -70.92728 | 16784 ft | 217 kts | 208° |
| 2026-05-07 04:04 | 42.50929 | -70.93459 | 16794 ft | 216 kts | 208° |
| 2026-05-07 04:04 | 42.49513 | -70.94173 | 16801 ft | 217 kts | 208° |
| 2026-05-07 04:04 | 42.48087 | -70.94876 | 16801 ft | 219 kts | 208° |
| 2026-05-07 04:05 | 42.46654 | -70.95576 | 16805 ft | 219 kts | 208° |
| 2026-05-07 04:05 | 42.45215 | -70.96276 | 16803 ft | 220 kts | 208° |
| 2026-05-07 04:05 | 42.43772 | -70.96979 | 16805 ft | 221 kts | 207° |
| 2026-05-07 04:05 | 42.42195 | -70.96973 | 16782 ft | 251 kts | 168° |
| 2026-05-07 04:06 | 42.40573 | -70.95901 | 16769 ft | 252 kts | 179° |
| 2026-05-07 04:06 | 42.38995 | -70.96020 | 16739 ft | 216 kts | 213° |
| 2026-05-07 04:06 | 42.37928 | -70.97354 | 16315 ft | 213 kts | 235° |
| 2026-05-07 04:06 | 42.36824 | -70.98810 | 15560 ft | 234 kts | 219° |
| 2026-05-07 04:07 | 42.35457 | -71.00073 | 15093 ft | 240 kts | 219° |
| 2026-05-07 04:07 | 42.34075 | -71.01341 | 14800 ft | 239 kts | 219° |
| 2026-05-07 04:07 | 42.32715 | -71.02575 | 14533 ft | 237 kts | 219° |
| 2026-05-07 04:07 | 42.31341 | -71.03808 | 14235 ft | 237 kts | 218° |
| 2026-05-07 04:08 | 42.29965 | -71.05033 | 13935 ft | 237 kts | 218° |
| 2026-05-07 04:08 | 42.28586 | -71.06253 | 13653 ft | 236 kts | 218° |
| 2026-05-07 04:08 | 42.27214 | -71.07461 | 13358 ft | 235 kts | 218° |
| 2026-05-07 04:08 | 42.25845 | -71.08662 | 13051 ft | 234 kts | 218° |
| 2026-05-07 04:09 | 42.24476 | -71.09859 | 12710 ft | 234 kts | 218° |
| 2026-05-07 04:09 | 42.23105 | -71.11056 | 12350 ft | 236 kts | 218° |
| 2026-05-07 04:09 | 42.21665 | -71.12137 | 12051 ft | 238 kts | 212° |
| 2026-05-07 04:09 | 42.20167 | -71.13081 | 11782 ft | 238 kts | 209° |
| 2026-05-07 04:10 | 42.18534 | -71.13476 | 11451 ft | 254 kts | 184° |
| 2026-05-07 04:10 | 42.16787 | -71.12839 | 11180 ft | 268 kts | 165° |
| 2026-05-07 04:10 | 42.15183 | -71.11449 | 10874 ft | 282 kts | 146° |
| 2026-05-07 04:10 | 42.13967 | -71.09288 | 10581 ft | 296 kts | 128° |
| 2026-05-07 04:11 | 42.13139 | -71.06734 | 10282 ft | 306 kts | 105° |
| 2026-05-07 04:11 | 42.13253 | -71.03845 | 10009 ft | 314 kts | 74° |
| 2026-05-07 04:11 | 42.14274 | -71.01289 | 9849 ft | 305 kts | 45° |
| 2026-05-07 04:11 | 42.15868 | -70.99539 | 9731 ft | 289 kts | 20° |
| 2026-05-07 04:12 | 42.17697 | -70.98521 | 9413 ft | 284 kts | 13° |
| 2026-05-07 04:12 | 42.19564 | -70.97640 | 9142 ft | 283 kts | 12° |
| 2026-05-07 04:12 | 42.21426 | -70.96783 | 8892 ft | 282 kts | 12° |
| 2026-05-07 04:12 | 42.23276 | -70.95930 | 8678 ft | 280 kts | 12° |
| 2026-05-07 04:13 | 42.25080 | -70.95092 | 8453 ft | 277 kts | 12° |
| 2026-05-07 04:13 | 42.26901 | -70.94241 | 8192 ft | 276 kts | 12° |
| 2026-05-07 04:13 | 42.28715 | -70.93389 | 7959 ft | 275 kts | 12° |
| 2026-05-07 04:13 | 42.30515 | -70.92538 | 7709 ft | 274 kts | 13° |
| 2026-05-07 04:14 | 42.32296 | -70.91693 | 7593 ft | 267 kts | 13° |
| 2026-05-07 04:14 | 42.34034 | -70.90865 | 7446 ft | 261 kts | 12° |
| 2026-05-07 04:14 | 42.35745 | -70.90051 | 7217 ft | 260 kts | 12° |
| 2026-05-07 04:14 | 42.37445 | -70.89243 | 6986 ft | 258 kts | 13° |
| 2026-05-07 04:15 | 42.39138 | -70.88437 | 6744 ft | 257 kts | 13° |
| 2026-05-07 04:15 | 42.40802 | -70.87645 | 6534 ft | 256 kts | 13° |
| 2026-05-07 04:15 | 42.42478 | -70.86845 | 6321 ft | 254 kts | 13° |
| 2026-05-07 04:15 | 42.44141 | -70.86050 | 6117 ft | 252 kts | 14° |
| 2026-05-07 04:16 | 42.45785 | -70.85264 | 5857 ft | 251 kts | 14° |
| 2026-05-07 04:16 | 42.47442 | -70.84472 | 5605 ft | 251 kts | 14° |
| 2026-05-07 04:16 | 42.49074 | -70.83690 | 5415 ft | 247 kts | 13° |
| 2026-05-07 04:16 | 42.50689 | -70.82908 | 5165 ft | 246 kts | 14° |
| 2026-05-07 04:17 | 42.52301 | -70.82134 | 4922 ft | 245 kts | 14° |
| 2026-05-07 04:17 | 42.53903 | -70.81373 | 4710 ft | 243 kts | 13° |
| 2026-05-07 04:17 | 42.55497 | -70.80618 | 4456 ft | 243 kts | 14° |
| 2026-05-07 04:17 | 42.57057 | -70.79865 | 4260 ft | 240 kts | 14° |
| 2026-05-07 04:18 | 42.58631 | -70.79110 | 4027 ft | 239 kts | 14° |
| 2026-05-07 04:18 | 42.60172 | -70.78367 | 3903 ft | 233 kts | 14° |
| 2026-05-07 04:18 | 42.61731 | -70.77848 | 3591 ft | 225 kts | 351° |
| 2026-05-07 04:18 | 42.63057 | -70.78603 | 3461 ft | 197 kts | 309° |
| 2026-05-07 04:19 | 42.63756 | -70.80128 | 3244 ft | 185 kts | 289° |
| 2026-05-07 04:19 | 42.64005 | -70.81774 | 3110 ft | 175 kts | 269° |
| 2026-05-07 04:19 | 42.63754 | -70.83372 | 2898 ft | 176 kts | 249° |
| 2026-05-07 04:19 | 42.63083 | -70.84765 | 2869 ft | 176 kts | 230° |
| 2026-05-07 04:20 | 42.62070 | -70.85707 | 2819 ft | 178 kts | 214° |
| 2026-05-07 04:20 | 42.61006 | -70.86505 | 2812 ft | 169 kts | 216° |
| 2026-05-07 04:20 | 42.59995 | -70.87271 | 2801 ft | 164 kts | 217° |
| 2026-05-07 04:21 | 42.57987 | -70.88786 | 2800 ft | 164 kts | 217° |
| 2026-05-07 04:21 | 42.56995 | -70.89530 | 2802 ft | 165 kts | 215° |
| 2026-05-07 04:21 | 42.55984 | -70.90285 | 2818 ft | 166 kts | 216° |
| 2026-05-07 04:21 | 42.54962 | -70.91049 | 2810 ft | 169 kts | 216° |
| 2026-05-07 04:22 | 42.53929 | -70.91817 | 2805 ft | 169 kts | 214° |
| 2026-05-07 04:22 | 42.52866 | -70.92500 | 2812 ft | 169 kts | 210° |
| 2026-05-07 04:22 | 42.51774 | -70.93089 | 2804 ft | 168 kts | 207° |
| 2026-05-07 04:22 | 42.50664 | -70.93643 | 2756 ft | 170 kts | 206° |
| 2026-05-07 04:23 | 42.49582 | -70.94178 | 2552 ft | 161 kts | 207° |
| 2026-05-07 04:23 | 42.48568 | -70.94663 | 2394 ft | 149 kts | 211° |
| 2026-05-07 04:23 | 42.47598 | -70.95135 | 2175 ft | 147 kts | 208° |
| 2026-05-07 04:23 | 42.46626 | -70.95604 | 1964 ft | 149 kts | 208° |
| 2026-05-07 04:24 | 42.45678 | -70.96060 | 1773 ft | 144 kts | 208° |
| 2026-05-07 04:24 | 42.44736 | -70.96518 | 1586 ft | 146 kts | 208° |
| 2026-05-07 04:24 | 42.43770 | -70.96989 | 1389 ft | 149 kts | 207° |
| 2026-05-07 04:24 | 42.42794 | -70.97459 | 1186 ft | 148 kts | 207° |
| 2026-05-07 04:25 | 42.41824 | -70.97930 | 991 ft | 146 kts | 206° |
| 2026-05-07 04:25 | 42.40876 | -70.98386 | 784 ft | 142 kts | 203° |
| 2026-05-07 04:25 | 42.39960 | -70.98831 | 601 ft | 140 kts | 204° |
| 2026-05-07 04:25 | 42.39045 | -70.99272 | 431 ft | 142 kts | 202° |
| 2026-05-07 04:26 | 42.38101 | -70.99721 | 220 ft | 145 kts | 204° |
| 2026-05-07 04:26 | 42.37159 | -71.00184 | 38 ft | 141 kts | 202° |
| 2026-05-07 04:26 | 42.36322 | -71.00595 | 26 ft | 109 kts | 199° |
| 2026-05-07 04:26 | 42.35746 | -71.00870 | 27 ft | 66 kts | 198° |
| 2026-05-07 04:27 | 42.35455 | -71.01013 | 27 ft | 24 kts | 199° |
| 2026-05-07 04:27 | 42.35386 | -71.01072 | 27 ft | 10 kts | 238° |
| 2026-05-07 04:27 | 42.35393 | -71.01157 | 28 ft | 9 kts | 296° |
| 2026-05-07 04:27 | 42.35416 | -71.01239 | 25 ft | 9 kts | 290° |
| 2026-05-07 04:28 | 42.35438 | -71.01318 | 26 ft | 9 kts | 295° |
| 2026-05-07 04:28 | 42.35484 | -71.01367 | 24 ft | 9 kts | 353° |
| 2026-05-07 04:28 | 42.35544 | -71.01345 | 25 ft | 9 kts | 22° |
| 2026-05-07 04:28 | 42.35610 | -71.01320 | 24 ft | 10 kts | 12° |
| 2026-05-07 04:29 | 42.35682 | -71.01297 | 24 ft | 10 kts | 14° |
| 2026-05-07 04:29 | 42.35744 | -71.01329 | 25 ft | 10 kts | 302° |
| 2026-05-07 04:29 | 42.35770 | -71.01421 | 27 ft | 11 kts | 289° |
| 2026-05-07 04:29 | 42.35794 | -71.01514 | 25 ft | 10 kts | 289° |
| 2026-05-07 04:30 | 42.35817 | -71.01606 | 24 ft | 10 kts | 287° |
| 2026-05-07 04:30 | 42.35832 | -71.01697 | 27 ft | 10 kts | 282° |
| 2026-05-07 04:30 | 42.35848 | -71.01786 | 29 ft | 10 kts | 285° |
| 2026-05-07 04:30 | 42.35867 | -71.01872 | 28 ft | 9 kts | 291° |
| 2026-05-07 04:31 | 42.35896 | -71.01949 | 26 ft | 9 kts | 300° |
| 2026-05-07 04:31 | 42.35932 | -71.02021 | 29 ft | 9 kts | 314° |
| 2026-05-07 04:31 | 42.35990 | -71.02029 | 24 ft | 9 kts | 28° |
| 2026-05-07 04:31 | 42.36033 | -71.01973 | 25 ft | 8 kts | 38° |
| 2026-05-07 04:32 | 42.36049 | -71.01960 | 27 ft | 0 kts | 30° |
| 2026-05-07 04:32 | 42.36052 | -71.01955 | 24 ft | 1 kts | 46° |
| 2026-05-07 04:32 | 42.36056 | -71.01953 | 24 ft | 0 kts | 28° |
| 2026-05-07 04:33 | 42.36059 | -71.01951 | 26 ft | 2 kts | 28° |
| 2026-05-07 04:33 | 42.36051 | -71.01957 | 24 ft | 2 kts | 28° |
| 2026-05-07 04:33 | 42.36049 | -71.01958 | 24 ft | 5 kts | 28° |
| 2026-05-07 04:33 | 42.36041 | -71.01964 | 28 ft | 3 kts | 30° |
| 2026-05-07 04:34 | 42.36053 | -71.01955 | 24 ft | 0 kts | 28° |